sensor_id;sensor_type;location;lat;lon;timestamp;P1;durP1;ratioP1;P2;durP2;ratioP2
84054;SDS011;74141;51.504;7.122;2024-03-23T00:55:02;23.17;;;5.38;;
84054;SDS011;74141;51.504;7.122;2024-03-23T00:57:28;27.85;;;6.05;;
84054;SDS011;74141;51.504;7.122;2024-03-23T00:59:53;14.38;;;5.40;;
84054;SDS011;74141;51.504;7.122;2024-03-23T01:02:18;26.37;;;5.30;;
84054;SDS011;74141;51.504;7.122;2024-03-23T01:04:44;29.27;;;5.60;;
84054;SDS011;74141;51.504;7.122;2024-03-23T01:07:09;13.60;;;4.10;;
84054;SDS011;74141;51.504;7.122;2024-03-23T01:09:34;22.33;;;4.90;;
84054;SDS011;74141;51.504;7.122;2024-03-23T01:12:00;16.50;;;3.95;;
84054;SDS011;74141;51.504;7.122;2024-03-23T01:14:26;15.38;;;4.88;;
84054;SDS011;74141;51.504;7.122;2024-03-23T01:16:52;14.77;;;4.10;;
84054;SDS011;74141;51.504;7.122;2024-03-23T01:19:17;15.25;;;4.03;;
84054;SDS011;74141;51.504;7.122;2024-03-23T01:21:42;11.85;;;3.63;;
84054;SDS011;74141;51.504;7.122;2024-03-23T01:24:08;16.33;;;3.30;;
84054;SDS011;74141;51.504;7.122;2024-03-23T01:26:35;9.35;;;3.17;;
84054;SDS011;74141;51.504;7.122;2024-03-23T01:29:02;7.05;;;3.45;;
84054;SDS011;74141;51.504;7.122;2024-03-23T01:31:27;12.70;;;4.13;;
84054;SDS011;74141;51.504;7.122;2024-03-23T01:33:52;12.80;;;4.83;;
84054;SDS011;74141;51.504;7.122;2024-03-23T01:36:18;12.95;;;3.92;;
84054;SDS011;74141;51.504;7.122;2024-03-23T01:38:43;11.48;;;3.70;;
84054;SDS011;74141;51.504;7.122;2024-03-23T01:41:08;17.27;;;3.70;;
84054;SDS011;74141;51.504;7.122;2024-03-23T01:43:34;16.02;;;4.22;;
84054;SDS011;74141;51.504;7.122;2024-03-23T01:45:59;10.60;;;3.88;;
84054;SDS011;74141;51.504;7.122;2024-03-23T01:48:24;11.80;;;4.13;;
84054;SDS011;74141;51.504;7.122;2024-03-23T01:50:50;13.50;;;4.83;;
84054;SDS011;74141;51.504;7.122;2024-03-23T01:53:15;16.85;;;4.55;;
84054;SDS011;74141;51.504;7.122;2024-03-23T01:55:46;8.60;;;3.35;;
84054;SDS011;74141;51.504;7.122;2024-03-23T01:58:12;17.85;;;4.50;;
84054;SDS011;74141;51.504;7.122;2024-03-23T02:00:37;12.50;;;4.82;;
84054;SDS011;74141;51.504;7.122;2024-03-23T02:03:25;9.57;;;3.38;;
84054;SDS011;74141;51.504;7.122;2024-03-23T02:05:52;16.08;;;3.60;;
84054;SDS011;74141;51.504;7.122;2024-03-23T02:08:18;10.38;;;3.40;;
84054;SDS011;74141;51.504;7.122;2024-03-23T02:10:46;8.77;;;3.53;;
84054;SDS011;74141;51.504;7.122;2024-03-23T02:13:14;11.18;;;3.75;;
84054;SDS011;74141;51.504;7.122;2024-03-23T02:15:40;11.00;;;3.60;;
84054;SDS011;74141;51.504;7.122;2024-03-23T02:18:12;18.85;;;5.63;;
84054;SDS011;74141;51.504;7.122;2024-03-23T02:20:37;15.25;;;3.53;;
84054;SDS011;74141;51.504;7.122;2024-03-23T02:23:13;9.48;;;3.45;;
84054;SDS011;74141;51.504;7.122;2024-03-23T02:25:38;12.48;;;3.50;;
84054;SDS011;74141;51.504;7.122;2024-03-23T02:28:13;14.98;;;3.47;;
84054;SDS011;74141;51.504;7.122;2024-03-23T02:30:38;10.73;;;3.60;;
84054;SDS011;74141;51.504;7.122;2024-03-23T02:33:12;9.75;;;3.20;;
84054;SDS011;74141;51.504;7.122;2024-03-23T02:35:37;12.07;;;3.78;;
84054;SDS011;74141;51.504;7.122;2024-03-23T02:38:12;10.20;;;4.07;;
84054;SDS011;74141;51.504;7.122;2024-03-23T02:40:37;11.95;;;3.40;;
84054;SDS011;74141;51.504;7.122;2024-03-23T02:43:12;9.98;;;3.90;;
84054;SDS011;74141;51.504;7.122;2024-03-23T02:45:37;9.38;;;4.03;;
84054;SDS011;74141;51.504;7.122;2024-03-23T02:48:12;12.43;;;3.70;;
84054;SDS011;74141;51.504;7.122;2024-03-23T02:50:37;9.20;;;3.70;;
84054;SDS011;74141;51.504;7.122;2024-03-23T02:53:12;12.10;;;3.25;;
84054;SDS011;74141;51.504;7.122;2024-03-23T02:55:37;11.60;;;3.92;;
84054;SDS011;74141;51.504;7.122;2024-03-23T02:58:11;12.15;;;3.33;;
84054;SDS011;74141;51.504;7.122;2024-03-23T03:00:37;12.80;;;3.60;;
84054;SDS011;74141;51.504;7.122;2024-03-23T03:03:02;11.55;;;3.63;;
84054;SDS011;74141;51.504;7.122;2024-03-23T03:05:28;13.52;;;3.53;;
84054;SDS011;74141;51.504;7.122;2024-03-23T03:07:53;11.18;;;3.30;;
84054;SDS011;74141;51.504;7.122;2024-03-23T03:10:19;10.25;;;3.13;;
84054;SDS011;74141;51.504;7.122;2024-03-23T03:12:44;7.82;;;3.90;;
84054;SDS011;74141;51.504;7.122;2024-03-23T03:15:09;12.30;;;3.73;;
84054;SDS011;74141;51.504;7.122;2024-03-23T03:17:35;13.07;;;5.03;;
84054;SDS011;74141;51.504;7.122;2024-03-23T03:20:00;8.43;;;3.10;;
84054;SDS011;74141;51.504;7.122;2024-03-23T03:22:25;14.33;;;5.07;;
84054;SDS011;74141;51.504;7.122;2024-03-23T03:24:50;9.98;;;4.05;;
84054;SDS011;74141;51.504;7.122;2024-03-23T03:27:16;10.70;;;3.80;;
84054;SDS011;74141;51.504;7.122;2024-03-23T03:29:41;8.77;;;3.67;;
84054;SDS011;74141;51.504;7.122;2024-03-23T03:32:07;10.17;;;3.33;;
84054;SDS011;74141;51.504;7.122;2024-03-23T03:34:32;10.68;;;3.53;;
84054;SDS011;74141;51.504;7.122;2024-03-23T03:36:57;7.57;;;3.50;;
84054;SDS011;74141;51.504;7.122;2024-03-23T03:39:23;14.73;;;3.58;;
84054;SDS011;74141;51.504;7.122;2024-03-23T03:41:49;7.45;;;2.65;;
84054;SDS011;74141;51.504;7.122;2024-03-23T03:44:14;10.75;;;3.03;;
84054;SDS011;74141;51.504;7.122;2024-03-23T03:46:40;11.15;;;3.40;;
84054;SDS011;74141;51.504;7.122;2024-03-23T03:49:05;9.57;;;3.57;;
84054;SDS011;74141;51.504;7.122;2024-03-23T03:51:30;6.93;;;2.40;;
84054;SDS011;74141;51.504;7.122;2024-03-23T03:53:55;9.00;;;2.90;;
84054;SDS011;74141;51.504;7.122;2024-03-23T03:56:21;10.15;;;2.90;;
84054;SDS011;74141;51.504;7.122;2024-03-23T03:58:47;9.15;;;3.00;;
84054;SDS011;74141;51.504;7.122;2024-03-23T04:01:12;6.70;;;2.77;;
84054;SDS011;74141;51.504;7.122;2024-03-23T04:03:37;7.93;;;2.30;;
84054;SDS011;74141;51.504;7.122;2024-03-23T04:06:08;10.02;;;2.60;;
84054;SDS011;74141;51.504;7.122;2024-03-23T04:08:33;7.40;;;2.70;;
84054;SDS011;74141;51.504;7.122;2024-03-23T04:10:58;9.57;;;3.03;;
84054;SDS011;74141;51.504;7.122;2024-03-23T04:13:24;15.63;;;3.40;;
84054;SDS011;74141;51.504;7.122;2024-03-23T04:15:53;6.97;;;3.93;;
84054;SDS011;74141;51.504;7.122;2024-03-23T04:18:19;11.80;;;3.13;;
84054;SDS011;74141;51.504;7.122;2024-03-23T04:20:44;15.50;;;3.67;;
84054;SDS011;74141;51.504;7.122;2024-03-23T04:23:09;10.25;;;3.70;;
84054;SDS011;74141;51.504;7.122;2024-03-23T04:25:35;17.17;;;4.10;;
84054;SDS011;74141;51.504;7.122;2024-03-23T04:28:00;10.57;;;3.92;;
84054;SDS011;74141;51.504;7.122;2024-03-23T04:30:25;10.85;;;4.03;;
84054;SDS011;74141;51.504;7.122;2024-03-23T04:32:53;17.63;;;5.72;;
84054;SDS011;74141;51.504;7.122;2024-03-23T04:35:18;17.63;;;5.15;;
84054;SDS011;74141;51.504;7.122;2024-03-23T04:37:45;13.75;;;5.30;;
84054;SDS011;74141;51.504;7.122;2024-03-23T04:40:10;15.67;;;5.17;;
84054;SDS011;74141;51.504;7.122;2024-03-23T04:42:36;20.88;;;5.93;;
84054;SDS011;74141;51.504;7.122;2024-03-23T04:45:02;10.68;;;5.47;;
84054;SDS011;74141;51.504;7.122;2024-03-23T04:47:28;13.40;;;5.82;;
84054;SDS011;74141;51.504;7.122;2024-03-23T04:49:53;16.23;;;6.40;;
84054;SDS011;74141;51.504;7.122;2024-03-23T04:52:19;11.23;;;4.53;;
84054;SDS011;74141;51.504;7.122;2024-03-23T04:54:44;12.20;;;4.47;;
84054;SDS011;74141;51.504;7.122;2024-03-23T04:57:12;19.48;;;4.32;;
84054;SDS011;74141;51.504;7.122;2024-03-23T04:59:38;12.40;;;3.88;;
84054;SDS011;74141;51.504;7.122;2024-03-23T05:02:03;14.70;;;4.03;;
84054;SDS011;74141;51.504;7.122;2024-03-23T05:04:28;12.50;;;3.88;;
84054;SDS011;74141;51.504;7.122;2024-03-23T05:06:54;9.43;;;3.42;;
84054;SDS011;74141;51.504;7.122;2024-03-23T05:09:19;7.68;;;3.95;;
84054;SDS011;74141;51.504;7.122;2024-03-23T05:11:45;10.65;;;3.03;;
84054;SDS011;74141;51.504;7.122;2024-03-23T05:14:11;11.02;;;4.20;;
84054;SDS011;74141;51.504;7.122;2024-03-23T05:16:38;15.55;;;4.20;;
84054;SDS011;74141;51.504;7.122;2024-03-23T05:19:03;11.57;;;4.13;;
84054;SDS011;74141;51.504;7.122;2024-03-23T05:21:28;18.90;;;4.63;;
84054;SDS011;74141;51.504;7.122;2024-03-23T05:23:54;8.55;;;4.03;;
84054;SDS011;74141;51.504;7.122;2024-03-23T05:26:19;15.52;;;4.68;;
84054;SDS011;74141;51.504;7.122;2024-03-23T05:28:45;17.25;;;5.30;;
84054;SDS011;74141;51.504;7.122;2024-03-23T05:31:10;14.90;;;5.70;;
84054;SDS011;74141;51.504;7.122;2024-03-23T05:33:36;18.35;;;4.88;;
84054;SDS011;74141;51.504;7.122;2024-03-23T05:36:04;13.05;;;4.82;;
84054;SDS011;74141;51.504;7.122;2024-03-23T05:38:30;15.57;;;5.65;;
84054;SDS011;74141;51.504;7.122;2024-03-23T05:40:56;16.07;;;5.80;;
84054;SDS011;74141;51.504;7.122;2024-03-23T05:43:25;14.40;;;6.55;;
84054;SDS011;74141;51.504;7.122;2024-03-23T05:45:54;15.40;;;5.40;;
84054;SDS011;74141;51.504;7.122;2024-03-23T05:48:19;11.93;;;5.45;;
84054;SDS011;74141;51.504;7.122;2024-03-23T05:50:45;17.80;;;6.07;;
84054;SDS011;74141;51.504;7.122;2024-03-23T05:53:10;13.77;;;6.00;;
84054;SDS011;74141;51.504;7.122;2024-03-23T05:55:35;18.47;;;6.50;;
84054;SDS011;74141;51.504;7.122;2024-03-23T05:58:00;14.37;;;6.47;;
84054;SDS011;74141;51.504;7.122;2024-03-23T06:00:26;11.80;;;5.90;;
84054;SDS011;74141;51.504;7.122;2024-03-23T06:02:51;14.27;;;5.65;;
84054;SDS011;74141;51.504;7.122;2024-03-23T06:05:16;16.00;;;6.28;;
84054;SDS011;74141;51.504;7.122;2024-03-23T06:07:42;24.40;;;7.55;;
84054;SDS011;74141;51.504;7.122;2024-03-23T06:10:07;14.47;;;6.60;;
84054;SDS011;74141;51.504;7.122;2024-03-23T06:12:33;17.50;;;6.47;;
84054;SDS011;74141;51.504;7.122;2024-03-23T06:14:58;22.33;;;6.93;;
84054;SDS011;74141;51.504;7.122;2024-03-23T06:17:23;15.63;;;6.80;;
84054;SDS011;74141;51.504;7.122;2024-03-23T06:19:49;16.95;;;4.10;;
84054;SDS011;74141;51.504;7.122;2024-03-23T06:22:14;14.00;;;6.35;;
84054;SDS011;74141;51.504;7.122;2024-03-23T06:24:39;27.63;;;7.78;;
84054;SDS011;74141;51.504;7.122;2024-03-23T06:27:05;22.03;;;7.33;;
84054;SDS011;74141;51.504;7.122;2024-03-23T06:29:30;21.17;;;8.53;;
84054;SDS011;74141;51.504;7.122;2024-03-23T06:31:55;16.70;;;8.13;;
84054;SDS011;74141;51.504;7.122;2024-03-23T06:34:21;21.95;;;8.55;;
84054;SDS011;74141;51.504;7.122;2024-03-23T06:36:47;24.77;;;9.68;;
84054;SDS011;74141;51.504;7.122;2024-03-23T06:39:14;24.80;;;8.95;;
84054;SDS011;74141;51.504;7.122;2024-03-23T06:41:41;20.05;;;9.30;;
84054;SDS011;74141;51.504;7.122;2024-03-23T06:44:17;19.65;;;8.40;;
84054;SDS011;74141;51.504;7.122;2024-03-23T06:46:43;27.48;;;8.55;;
84054;SDS011;74141;51.504;7.122;2024-03-23T06:49:08;19.98;;;8.18;;
84054;SDS011;74141;51.504;7.122;2024-03-23T06:51:33;20.45;;;7.20;;
84054;SDS011;74141;51.504;7.122;2024-03-23T06:53:59;20.48;;;7.93;;
84054;SDS011;74141;51.504;7.122;2024-03-23T06:56:24;15.47;;;7.03;;
84054;SDS011;74141;51.504;7.122;2024-03-23T06:58:49;18.20;;;7.63;;
84054;SDS011;74141;51.504;7.122;2024-03-23T07:01:14;19.73;;;9.57;;
84054;SDS011;74141;51.504;7.122;2024-03-23T07:03:40;19.40;;;7.32;;
84054;SDS011;74141;51.504;7.122;2024-03-23T07:06:05;24.57;;;7.93;;
84054;SDS011;74141;51.504;7.122;2024-03-23T07:08:30;15.93;;;6.75;;
84054;SDS011;74141;51.504;7.122;2024-03-23T07:10:56;17.48;;;7.45;;
84054;SDS011;74141;51.504;7.122;2024-03-23T07:13:21;12.10;;;7.07;;
84054;SDS011;74141;51.504;7.122;2024-03-23T07:15:52;17.35;;;6.65;;
84054;SDS011;74141;51.504;7.122;2024-03-23T07:18:18;17.45;;;8.30;;
84054;SDS011;74141;51.504;7.122;2024-03-23T07:20:51;16.47;;;6.67;;
84054;SDS011;74141;51.504;7.122;2024-03-23T07:23:17;9.95;;;6.38;;
84054;SDS011;74141;51.504;7.122;2024-03-23T07:25:42;15.03;;;6.40;;
84054;SDS011;74141;51.504;7.122;2024-03-23T07:28:08;16.90;;;6.77;;
84054;SDS011;74141;51.504;7.122;2024-03-23T07:30:33;14.97;;;6.17;;
84054;SDS011;74141;51.504;7.122;2024-03-23T07:32:58;20.63;;;6.63;;
84054;SDS011;74141;51.504;7.122;2024-03-23T07:35:23;14.80;;;5.00;;
84054;SDS011;74141;51.504;7.122;2024-03-23T07:37:49;16.37;;;7.47;;
84054;SDS011;74141;51.504;7.122;2024-03-23T07:40:14;16.73;;;5.07;;
84054;SDS011;74141;51.504;7.122;2024-03-23T07:42:39;14.25;;;7.07;;
84054;SDS011;74141;51.504;7.122;2024-03-23T07:45:04;11.53;;;5.60;;
84054;SDS011;74141;51.504;7.122;2024-03-23T07:47:30;14.60;;;5.88;;
84054;SDS011;74141;51.504;7.122;2024-03-23T07:49:56;21.58;;;6.00;;
84054;SDS011;74141;51.504;7.122;2024-03-23T07:52:21;19.43;;;5.97;;
84054;SDS011;74141;51.504;7.122;2024-03-23T07:54:46;16.23;;;6.10;;
84054;SDS011;74141;51.504;7.122;2024-03-23T07:57:12;13.65;;;6.28;;
84054;SDS011;74141;51.504;7.122;2024-03-23T07:59:37;14.17;;;4.80;;
84054;SDS011;74141;51.504;7.122;2024-03-23T08:02:02;14.43;;;5.00;;
84054;SDS011;74141;51.504;7.122;2024-03-23T08:04:28;12.35;;;5.93;;
84054;SDS011;74141;51.504;7.122;2024-03-23T08:06:54;9.50;;;4.45;;
84054;SDS011;74141;51.504;7.122;2024-03-23T08:09:19;13.75;;;6.20;;
84054;SDS011;74141;51.504;7.122;2024-03-23T08:11:44;8.73;;;4.73;;
84054;SDS011;74141;51.504;7.122;2024-03-23T08:14:11;12.45;;;5.35;;
84054;SDS011;74141;51.504;7.122;2024-03-23T08:16:36;18.13;;;5.50;;
84054;SDS011;74141;51.504;7.122;2024-03-23T08:19:02;16.17;;;4.87;;
84054;SDS011;74141;51.504;7.122;2024-03-23T08:21:28;9.90;;;4.63;;
84054;SDS011;74141;51.504;7.122;2024-03-23T08:23:54;12.98;;;4.40;;
84054;SDS011;74141;51.504;7.122;2024-03-23T08:26:19;11.67;;;4.33;;
84054;SDS011;74141;51.504;7.122;2024-03-23T08:28:44;15.07;;;4.72;;
84054;SDS011;74141;51.504;7.122;2024-03-23T08:31:10;15.77;;;4.78;;
84054;SDS011;74141;51.504;7.122;2024-03-23T08:33:36;11.70;;;4.00;;
84054;SDS011;74141;51.504;7.122;2024-03-23T08:36:04;11.77;;;4.47;;
84054;SDS011;74141;51.504;7.122;2024-03-23T08:38:30;13.80;;;3.70;;
84054;SDS011;74141;51.504;7.122;2024-03-23T08:40:57;9.40;;;4.53;;
84054;SDS011;74141;51.504;7.122;2024-03-23T08:43:22;10.95;;;4.78;;
84054;SDS011;74141;51.504;7.122;2024-03-23T08:45:48;11.55;;;4.35;;
84054;SDS011;74141;51.504;7.122;2024-03-23T08:48:13;9.88;;;4.70;;
84054;SDS011;74141;51.504;7.122;2024-03-23T08:50:39;13.20;;;4.97;;
84054;SDS011;74141;51.504;7.122;2024-03-23T08:53:04;13.47;;;4.50;;
84054;SDS011;74141;51.504;7.122;2024-03-23T08:55:29;13.90;;;4.43;;
84054;SDS011;74141;51.504;7.122;2024-03-23T08:57:55;8.38;;;4.85;;
84054;SDS011;74141;51.504;7.122;2024-03-23T09:00:20;11.30;;;4.78;;
84054;SDS011;74141;51.504;7.122;2024-03-23T09:02:50;8.15;;;5.18;;
84054;SDS011;74141;51.504;7.122;2024-03-23T09:05:15;11.82;;;5.00;;
84054;SDS011;74141;51.504;7.122;2024-03-23T09:07:40;15.77;;;5.53;;
84054;SDS011;74141;51.504;7.122;2024-03-23T09:10:06;9.70;;;4.43;;
84054;SDS011;74141;51.504;7.122;2024-03-23T09:12:32;9.90;;;3.83;;
84054;SDS011;74141;51.504;7.122;2024-03-23T09:14:58;10.73;;;3.60;;
84054;SDS011;74141;51.504;7.122;2024-03-23T09:17:23;9.50;;;3.95;;
84054;SDS011;74141;51.504;7.122;2024-03-23T09:19:48;9.23;;;3.83;;
84054;SDS011;74141;51.504;7.122;2024-03-23T09:22:13;6.20;;;3.80;;
84054;SDS011;74141;51.504;7.122;2024-03-23T09:24:39;10.65;;;4.13;;
84054;SDS011;74141;51.504;7.122;2024-03-23T09:27:05;10.07;;;3.78;;
84054;SDS011;74141;51.504;7.122;2024-03-23T09:29:30;6.68;;;2.80;;
84054;SDS011;74141;51.504;7.122;2024-03-23T09:31:55;4.07;;;2.53;;
84054;SDS011;74141;51.504;7.122;2024-03-23T09:34:21;11.95;;;3.05;;
84054;SDS011;74141;51.504;7.122;2024-03-23T09:36:46;11.73;;;3.33;;
84054;SDS011;74141;51.504;7.122;2024-03-23T09:39:12;8.80;;;2.83;;
84054;SDS011;74141;51.504;7.122;2024-03-23T09:41:38;9.15;;;3.40;;
84054;SDS011;74141;51.504;7.122;2024-03-23T09:44:04;9.65;;;3.00;;
84054;SDS011;74141;51.504;7.122;2024-03-23T09:46:30;7.40;;;2.92;;
84054;SDS011;74141;51.504;7.122;2024-03-23T09:48:59;11.23;;;3.95;;
84054;SDS011;74141;51.504;7.122;2024-03-23T09:51:25;9.48;;;3.72;;
84054;SDS011;74141;51.504;7.122;2024-03-23T09:53:50;5.70;;;2.90;;
84054;SDS011;74141;51.504;7.122;2024-03-23T09:56:17;7.40;;;3.92;;
84054;SDS011;74141;51.504;7.122;2024-03-23T09:58:42;10.50;;;4.07;;
84054;SDS011;74141;51.504;7.122;2024-03-23T10:01:07;7.47;;;3.35;;
84054;SDS011;74141;51.504;7.122;2024-03-23T10:03:41;14.27;;;3.28;;
84054;SDS011;74141;51.504;7.122;2024-03-23T10:06:07;7.47;;;3.83;;
84054;SDS011;74141;51.504;7.122;2024-03-23T10:08:33;7.97;;;4.53;;
84054;SDS011;74141;51.504;7.122;2024-03-23T10:11:11;7.30;;;3.10;;
84054;SDS011;74141;51.504;7.122;2024-03-23T10:13:41;8.30;;;3.85;;
84054;SDS011;74141;51.504;7.122;2024-03-23T10:16:08;8.98;;;3.25;;
84054;SDS011;74141;51.504;7.122;2024-03-23T10:18:38;7.80;;;2.78;;
84054;SDS011;74141;51.504;7.122;2024-03-23T10:21:10;10.38;;;3.50;;
84054;SDS011;74141;51.504;7.122;2024-03-23T10:23:37;6.72;;;2.80;;
84054;SDS011;74141;51.504;7.122;2024-03-23T10:31:32;6.47;;;2.92;;
84054;SDS011;74141;51.504;7.122;2024-03-23T10:34:00;8.40;;;2.90;;
84054;SDS011;74141;51.504;7.122;2024-03-23T10:36:28;8.02;;;3.55;;
84054;SDS011;74141;51.504;7.122;2024-03-23T10:38:55;10.25;;;2.50;;
84054;SDS011;74141;51.504;7.122;2024-03-23T10:41:21;8.82;;;2.83;;
84054;SDS011;74141;51.504;7.122;2024-03-23T10:43:47;6.82;;;2.72;;
84054;SDS011;74141;51.504;7.122;2024-03-23T10:46:13;4.03;;;2.20;;
84054;SDS011;74141;51.504;7.122;2024-03-23T10:48:39;6.13;;;2.60;;
84054;SDS011;74141;51.504;7.122;2024-03-23T10:51:08;2.90;;;2.30;;
84054;SDS011;74141;51.504;7.122;2024-03-23T10:53:34;3.90;;;1.67;;
84054;SDS011;74141;51.504;7.122;2024-03-23T10:56:00;8.70;;;2.72;;
84054;SDS011;74141;51.504;7.122;2024-03-23T10:58:30;10.38;;;2.40;;
84054;SDS011;74141;51.504;7.122;2024-03-23T11:00:58;5.97;;;1.88;;
84054;SDS011;74141;51.504;7.122;2024-03-23T11:03:33;3.85;;;1.80;;
84054;SDS011;74141;51.504;7.122;2024-03-23T11:06:00;3.08;;;1.30;;
84054;SDS011;74141;51.504;7.122;2024-03-23T11:08:47;4.20;;;1.65;;
84054;SDS011;74141;51.504;7.122;2024-03-23T11:11:18;2.38;;;1.40;;
84054;SDS011;74141;51.504;7.122;2024-03-23T11:13:44;5.78;;;1.35;;
84054;SDS011;74141;51.504;7.122;2024-03-23T11:16:13;1.40;;;0.88;;
84054;SDS011;74141;51.504;7.122;2024-03-23T11:22:03;3.13;;;1.60;;
84054;SDS011;74141;51.504;7.122;2024-03-23T11:24:30;3.08;;;1.48;;
84054;SDS011;74141;51.504;7.122;2024-03-23T11:26:55;4.03;;;1.00;;
84054;SDS011;74141;51.504;7.122;2024-03-23T11:29:21;3.85;;;1.10;;
84054;SDS011;74141;51.504;7.122;2024-03-23T11:31:49;1.45;;;1.15;;
84054;SDS011;74141;51.504;7.122;2024-03-23T11:36:42;1.42;;;1.23;;
84054;SDS011;74141;51.504;7.122;2024-03-23T11:39:14;6.15;;;1.58;;
84054;SDS011;74141;51.504;7.122;2024-03-23T11:41:46;3.60;;;1.67;;
84054;SDS011;74141;51.504;7.122;2024-03-23T11:44:19;2.35;;;1.65;;
84054;SDS011;74141;51.504;7.122;2024-03-23T11:46:47;4.68;;;1.83;;
84054;SDS011;74141;51.504;7.122;2024-03-23T11:49:25;3.55;;;2.20;;
84054;SDS011;74141;51.504;7.122;2024-03-23T11:51:53;9.40;;;2.72;;
84054;SDS011;74141;51.504;7.122;2024-03-23T11:54:23;6.07;;;2.47;;
84054;SDS011;74141;51.504;7.122;2024-03-23T11:57:02;5.07;;;2.60;;
84054;SDS011;74141;51.504;7.122;2024-03-23T11:59:30;5.93;;;2.30;;
84054;SDS011;74141;51.504;7.122;2024-03-23T12:01:59;5.45;;;2.35;;
84054;SDS011;74141;51.504;7.122;2024-03-23T12:04:25;6.95;;;2.63;;
84054;SDS011;74141;51.504;7.122;2024-03-23T12:09:43;5.45;;;2.58;;
84054;SDS011;74141;51.504;7.122;2024-03-23T12:12:09;4.50;;;2.60;;
84054;SDS011;74141;51.504;7.122;2024-03-23T12:15:00;8.35;;;2.28;;
84054;SDS011;74141;51.504;7.122;2024-03-23T12:17:27;3.63;;;1.92;;
84054;SDS011;74141;51.504;7.122;2024-03-23T12:19:53;6.38;;;2.35;;
84054;SDS011;74141;51.504;7.122;2024-03-23T12:22:21;4.67;;;2.10;;
84054;SDS011;74141;51.504;7.122;2024-03-23T12:24:47;4.03;;;2.10;;
84054;SDS011;74141;51.504;7.122;2024-03-23T12:27:12;3.95;;;1.88;;
84054;SDS011;74141;51.504;7.122;2024-03-23T12:29:38;3.73;;;2.37;;
84054;SDS011;74141;51.504;7.122;2024-03-23T12:32:04;5.30;;;1.85;;
84054;SDS011;74141;51.504;7.122;2024-03-23T12:34:30;4.28;;;1.50;;
84054;SDS011;74141;51.504;7.122;2024-03-23T12:36:56;5.47;;;2.22;;
84054;SDS011;74141;51.504;7.122;2024-03-23T12:39:21;3.78;;;2.15;;
84054;SDS011;74141;51.504;7.122;2024-03-23T12:41:47;4.78;;;2.30;;
84054;SDS011;74141;51.504;7.122;2024-03-23T12:44:13;3.60;;;2.10;;
84054;SDS011;74141;51.504;7.122;2024-03-23T12:46:40;4.30;;;1.70;;
84054;SDS011;74141;51.504;7.122;2024-03-23T12:49:06;5.13;;;2.38;;
84054;SDS011;74141;51.504;7.122;2024-03-23T12:51:32;6.78;;;2.50;;
84054;SDS011;74141;51.504;7.122;2024-03-23T12:53:57;5.28;;;2.00;;
84054;SDS011;74141;51.504;7.122;2024-03-23T12:56:23;1.92;;;1.48;;
84054;SDS011;74141;51.504;7.122;2024-03-23T12:58:48;4.18;;;2.30;;
84054;SDS011;74141;51.504;7.122;2024-03-23T13:01:16;5.97;;;2.53;;
84054;SDS011;74141;51.504;7.122;2024-03-23T13:03:47;8.88;;;2.50;;
84054;SDS011;74141;51.504;7.122;2024-03-23T13:06:13;3.83;;;2.10;;
84054;SDS011;74141;51.504;7.122;2024-03-23T13:08:39;3.95;;;1.85;;
84054;SDS011;74141;51.504;7.122;2024-03-23T13:11:05;3.10;;;1.50;;
84054;SDS011;74141;51.504;7.122;2024-03-23T13:13:33;4.25;;;2.08;;
84054;SDS011;74141;51.504;7.122;2024-03-23T13:15:59;4.57;;;2.33;;
84054;SDS011;74141;51.504;7.122;2024-03-23T13:18:24;5.75;;;2.28;;
84054;SDS011;74141;51.504;7.122;2024-03-23T13:20:49;5.70;;;3.13;;
84054;SDS011;74141;51.504;7.122;2024-03-23T13:23:14;6.90;;;2.57;;
84054;SDS011;74141;51.504;7.122;2024-03-23T13:25:40;4.93;;;2.50;;
84054;SDS011;74141;51.504;7.122;2024-03-23T13:28:05;5.18;;;2.78;;
84054;SDS011;74141;51.504;7.122;2024-03-23T13:30:30;5.07;;;2.08;;
84054;SDS011;74141;51.504;7.122;2024-03-23T13:32:56;5.83;;;2.13;;
84054;SDS011;74141;51.504;7.122;2024-03-23T13:35:21;3.37;;;2.40;;
84054;SDS011;74141;51.504;7.122;2024-03-23T13:37:47;3.42;;;1.60;;
84054;SDS011;74141;51.504;7.122;2024-03-23T13:40:13;3.80;;;2.58;;
84054;SDS011;74141;51.504;7.122;2024-03-23T13:42:38;3.70;;;1.88;;
84054;SDS011;74141;51.504;7.122;2024-03-23T13:45:04;4.17;;;1.33;;
84054;SDS011;74141;51.504;7.122;2024-03-23T13:47:29;3.67;;;2.03;;
84054;SDS011;74141;51.504;7.122;2024-03-23T13:49:55;4.00;;;2.10;;
84054;SDS011;74141;51.504;7.122;2024-03-23T13:52:20;4.20;;;2.33;;
84054;SDS011;74141;51.504;7.122;2024-03-23T13:54:48;3.97;;;2.08;;
84054;SDS011;74141;51.504;7.122;2024-03-23T13:57:13;9.82;;;3.78;;
84054;SDS011;74141;51.504;7.122;2024-03-23T13:59:39;6.15;;;2.80;;
84054;SDS011;74141;51.504;7.122;2024-03-23T14:02:04;9.90;;;3.55;;
84054;SDS011;74141;51.504;7.122;2024-03-23T14:04:29;8.90;;;3.50;;
84054;SDS011;74141;51.504;7.122;2024-03-23T14:06:54;4.80;;;3.40;;
84054;SDS011;74141;51.504;7.122;2024-03-23T14:09:20;5.27;;;2.93;;
84054;SDS011;74141;51.504;7.122;2024-03-23T14:11:50;7.13;;;3.60;;
84054;SDS011;74141;51.504;7.122;2024-03-23T14:14:16;8.30;;;3.63;;
84054;SDS011;74141;51.504;7.122;2024-03-23T14:16:42;8.57;;;3.30;;
84054;SDS011;74141;51.504;7.122;2024-03-23T14:19:07;3.75;;;2.13;;
84054;SDS011;74141;51.504;7.122;2024-03-23T14:21:33;3.35;;;1.73;;
84054;SDS011;74141;51.504;7.122;2024-03-23T14:24:01;2.92;;;2.00;;
84054;SDS011;74141;51.504;7.122;2024-03-23T14:26:27;5.35;;;2.25;;
84054;SDS011;74141;51.504;7.122;2024-03-23T14:28:53;3.50;;;1.60;;
84054;SDS011;74141;51.504;7.122;2024-03-23T14:31:18;4.13;;;2.08;;
84054;SDS011;74141;51.504;7.122;2024-03-23T14:33:43;3.67;;;1.60;;
84054;SDS011;74141;51.504;7.122;2024-03-23T14:36:14;4.18;;;1.73;;
84054;SDS011;74141;51.504;7.122;2024-03-23T14:38:39;4.07;;;1.77;;
84054;SDS011;74141;51.504;7.122;2024-03-23T14:41:05;4.07;;;2.35;;
84054;SDS011;74141;51.504;7.122;2024-03-23T14:43:31;5.35;;;1.75;;
84054;SDS011;74141;51.504;7.122;2024-03-23T14:46:06;2.15;;;1.50;;
84054;SDS011;74141;51.504;7.122;2024-03-23T14:48:31;5.95;;;1.83;;
84054;SDS011;74141;51.504;7.122;2024-03-23T14:50:57;6.28;;;2.08;;
84054;SDS011;74141;51.504;7.122;2024-03-23T14:53:24;3.53;;;1.60;;
84054;SDS011;74141;51.504;7.122;2024-03-23T14:55:50;4.07;;;1.65;;
84054;SDS011;74141;51.504;7.122;2024-03-23T14:58:15;5.20;;;1.80;;
84054;SDS011;74141;51.504;7.122;2024-03-23T15:00:41;3.38;;;1.42;;
84054;SDS011;74141;51.504;7.122;2024-03-23T15:03:06;4.27;;;2.00;;
84054;SDS011;74141;51.504;7.122;2024-03-23T15:05:31;4.10;;;1.80;;
84054;SDS011;74141;51.504;7.122;2024-03-23T15:07:57;6.23;;;1.50;;
84054;SDS011;74141;51.504;7.122;2024-03-23T15:10:23;2.72;;;0.90;;
84054;SDS011;74141;51.504;7.122;2024-03-23T15:12:48;5.53;;;1.90;;
84054;SDS011;74141;51.504;7.122;2024-03-23T15:15:14;4.35;;;1.55;;
84054;SDS011;74141;51.504;7.122;2024-03-23T15:17:40;3.85;;;1.60;;
84054;SDS011;74141;51.504;7.122;2024-03-23T15:20:09;3.97;;;1.80;;
84054;SDS011;74141;51.504;7.122;2024-03-23T15:22:36;3.17;;;1.55;;
84054;SDS011;74141;51.504;7.122;2024-03-23T15:25:02;5.32;;;1.98;;
84054;SDS011;74141;51.504;7.122;2024-03-23T15:27:27;3.72;;;1.70;;
84054;SDS011;74141;51.504;7.122;2024-03-23T15:29:52;3.07;;;1.43;;
84054;SDS011;74141;51.504;7.122;2024-03-23T15:32:17;2.60;;;1.30;;
84054;SDS011;74141;51.504;7.122;2024-03-23T15:34:43;3.03;;;1.75;;
84054;SDS011;74141;51.504;7.122;2024-03-23T15:37:08;3.08;;;1.60;;
84054;SDS011;74141;51.504;7.122;2024-03-23T15:39:33;4.85;;;1.80;;
84054;SDS011;74141;51.504;7.122;2024-03-23T15:41:59;2.20;;;1.57;;
84054;SDS011;74141;51.504;7.122;2024-03-23T15:44:24;4.65;;;1.92;;